createdAt,value
2017-05-04T00:00:55.740Z,100714.96
2017-05-04T00:03:23.191Z,100719.30
2017-05-04T00:05:50.633Z,100715.91
2017-05-04T00:08:18.112Z,100714.44
2017-05-04T00:10:45.563Z,100721.30
2017-05-04T00:13:13.019Z,100713.48
2017-05-04T00:15:40.484Z,100715.17
2017-05-04T00:18:07.919Z,100718.34
2017-05-04T00:20:35.363Z,100714.75
2017-05-04T00:23:02.826Z,100715.91
2017-05-04T00:25:30.267Z,100711.47
2017-05-04T00:27:57.749Z,100712.32
2017-05-04T00:30:25.236Z,100706.72
2017-05-04T00:32:52.691Z,100706.19
2017-05-04T00:35:20.282Z,100712.11
2017-05-04T00:37:47.743Z,100709.47
2017-05-04T00:40:15.185Z,100706.19
2017-05-04T00:42:42.635Z,100707.03
2017-05-04T00:45:10.110Z,100703.44
2017-05-04T00:47:37.559Z,100697.42
2017-05-04T00:50:04.998Z,100705.13
2017-05-04T00:52:32.462Z,100693.19
2017-05-04T00:54:59.907Z,100694.56
2017-05-04T00:57:27.346Z,100689.91
2017-05-04T00:59:54.808Z,100687.27
2017-05-04T01:02:22.277Z,100689.17
2017-05-04T01:04:49.705Z,100687.16
2017-05-04T01:07:17.171Z,100685.79
2017-05-04T01:09:44.611Z,100681.25
2017-05-04T01:12:12.053Z,100683.05
2017-05-04T01:14:39.517Z,100679.66
2017-05-04T01:17:06.954Z,100684.73
2017-05-04T01:19:34.407Z,100684.17
2017-05-04T01:22:01.856Z,100682.16
2017-05-04T01:24:29.306Z,100684.70
2017-05-04T01:26:56.742Z,100677.20
2017-05-04T01:29:24.222Z,100678.56
2017-05-04T01:31:51.734Z,100682.16
2017-05-04T01:34:19.182Z,100677.51
2017-05-04T01:36:46.630Z,100675.50
2017-05-04T01:39:14.077Z,100675.81
2017-05-04T01:41:41.520Z,100675.18
2017-05-04T01:44:08.994Z,100674.05
2017-05-04T01:46:36.443Z,100670.63
2017-05-04T01:49:03.895Z,100674.65
2017-05-04T01:51:31.370Z,100673.06
2017-05-04T01:53:58.807Z,100670.09
2017-05-04T01:56:26.253Z,100668.20
2017-05-04T01:58:53.733Z,100664.39
2017-05-04T02:01:21.198Z,100672.63
2017-05-04T02:03:48.630Z,100660.69
2017-05-04T02:06:16.085Z,100660.69
2017-05-04T02:08:43.534Z,100658.89
2017-05-04T02:11:10.985Z,100664.81
2017-05-04T02:13:38.484Z,100658.47
2017-05-04T02:16:05.915Z,100662.59
2017-05-04T02:18:33.361Z,100656.14
2017-05-04T02:21:00.817Z,100654.88
2017-05-04T02:23:28.272Z,100647.89
2017-05-04T02:25:55.738Z,100653.39
2017-05-04T02:28:23.210Z,100652.44
2017-05-04T02:30:50.670Z,100651.06
2017-05-04T02:33:18.117Z,100642.08
2017-05-04T02:35:45.581Z,100644.83
2017-05-04T02:38:13.017Z,100646.20
2017-05-04T02:40:40.459Z,100648.95
2017-05-04T02:43:07.915Z,100649.38
2017-05-04T02:45:35.354Z,100647.58
2017-05-04T02:48:02.786Z,100643.98
2017-05-04T02:50:30.234Z,100648.95
2017-05-04T02:52:57.685Z,100647.16
2017-05-04T02:55:25.124Z,100643.34
2017-05-04T02:57:52.602Z,100645.98
2017-05-04T03:00:20.045Z,100643.55
2017-05-04T03:02:47.478Z,100643.55
2017-05-04T03:05:14.952Z,100635.73
2017-05-04T03:07:42.391Z,100638.38
2017-05-04T03:10:10.094Z,100637.31
2017-05-04T03:12:37.558Z,100636.89
2017-05-04T03:15:05.007Z,100631.39
2017-05-04T03:17:32.466Z,100629.59
2017-05-04T03:19:59.929Z,100630.97
2017-05-04T03:22:27.369Z,100630.86
2017-05-04T03:24:54.815Z,100625.26
2017-05-04T03:27:22.346Z,100631.07
2017-05-04T03:29:49.782Z,100626.00
2017-05-04T03:32:17.271Z,100628.61
2017-05-04T03:34:44.743Z,100624.48
2017-05-04T03:37:12.190Z,100624.63
2017-05-04T03:39:39.640Z,100623.53
2017-05-04T03:42:07.117Z,100626.28
2017-05-04T03:44:34.586Z,100627.23
2017-05-04T03:47:02.045Z,100618.56
2017-05-04T03:49:29.527Z,100625.75
2017-05-04T03:51:57.018Z,100625.22
2017-05-04T03:54:24.461Z,100624.27
2017-05-04T03:56:51.927Z,100622.58
2017-05-04T03:59:19.364Z,100616.13
2017-05-04T04:01:46.802Z,100616.55
2017-05-04T04:04:14.267Z,100626.17
2017-05-04T04:06:41.693Z,100621.41
2017-05-04T04:09:09.137Z,100623.09
2017-05-04T04:11:36.586Z,100625.73
2017-05-04T04:14:04.018Z,100622.24
2017-05-04T04:16:31.460Z,100626.27
2017-05-04T04:18:58.930Z,100623.09
2017-05-04T04:21:26.378Z,100620.34
2017-05-04T04:23:53.817Z,100618.12
2017-05-04T04:26:21.284Z,100623.09
2017-05-04T04:28:48.719Z,100627.85
2017-05-04T04:31:16.153Z,100625.63
2017-05-04T04:33:43.607Z,100621.93
2017-05-04T04:36:11.042Z,100622.88
2017-05-04T04:38:38.481Z,100619.71
2017-05-04T04:41:05.934Z,100634.20
2017-05-04T04:43:33.363Z,100629.23
2017-05-04T04:46:00.808Z,100628.27
2017-05-04T04:48:28.274Z,100625.84
2017-05-04T04:50:55.710Z,100625.31
2017-05-04T04:53:23.139Z,100618.44
2017-05-04T04:55:50.610Z,100623.83
2017-05-04T04:58:18.041Z,100624.36
2017-05-04T05:00:45.476Z,100620.66
2017-05-04T05:03:12.947Z,100626.16
2017-05-04T05:05:40.386Z,100618.75
2017-05-04T05:08:07.830Z,100611.34
2017-05-04T05:10:35.293Z,100610.28
2017-05-04T05:13:02.727Z,100614.05
2017-05-04T05:15:30.158Z,100616.70
2017-05-04T05:17:57.616Z,100608.87
2017-05-04T05:20:25.058Z,100617.33
2017-05-04T05:22:52.506Z,100611.72
2017-05-04T05:25:19.950Z,100604.20
2017-05-04T05:27:47.397Z,100603.14
2017-05-04T05:30:14.840Z,100601.77
2017-05-04T05:32:42.305Z,100613.92
2017-05-04T05:35:09.752Z,100608.53
2017-05-04T05:37:37.192Z,100614.98
2017-05-04T05:40:04.662Z,100606.84
2017-05-04T05:42:32.092Z,100616.58
2017-05-04T05:44:59.529Z,100618.06
2017-05-04T05:47:26.975Z,100615.95
2017-05-04T05:49:54.413Z,100616.16
2017-05-04T05:52:21.861Z,100610.03
2017-05-04T05:54:49.322Z,100618.42
2017-05-04T05:57:16.759Z,100618.95
2017-05-04T05:59:44.197Z,100621.92
2017-05-04T06:02:11.664Z,100617.06
2017-05-04T06:04:39.105Z,100615.80
2017-05-04T06:07:06.538Z,100626.27
2017-05-04T06:09:34.002Z,100630.49
2017-05-04T06:12:01.430Z,100628.80
2017-05-04T06:14:28.874Z,100622.88
2017-05-04T06:16:56.325Z,100627.64
2017-05-04T06:19:23.762Z,100629.44
2017-05-04T06:21:51.197Z,100632.19
2017-05-04T06:24:18.663Z,100628.06
2017-05-04T06:26:46.136Z,100629.97
2017-05-04T06:29:13.575Z,100626.91
2017-05-04T06:31:41.026Z,100631.88
2017-05-04T06:34:08.462Z,100624.58
2017-05-04T06:36:35.903Z,100624.58
2017-05-04T06:39:03.382Z,100622.25
2017-05-04T06:41:30.827Z,100623.09
2017-05-04T06:43:58.287Z,100626.27
2017-05-04T06:46:25.755Z,100627.53
2017-05-04T06:48:53.230Z,100627.96
2017-05-04T06:51:20.710Z,100628.80
2017-05-04T06:53:48.207Z,100623.20
2017-05-04T06:56:15.682Z,100624.89
2017-05-04T06:58:43.167Z,100626.58
2017-05-04T07:01:10.613Z,100621.39
2017-05-04T07:03:38.075Z,100620.65
2017-05-04T07:06:05.542Z,100617.96
2017-05-04T07:08:33.005Z,100617.95
2017-05-04T07:11:00.446Z,100613.81
2017-05-04T07:13:28.713Z,100615.78
2017-05-04T07:15:56.154Z,100618.41
2017-05-04T07:18:23.591Z,100618.03
2017-05-04T07:20:51.045Z,100617.16
2017-05-04T07:23:18.486Z,100617.64
2017-05-04T07:25:45.926Z,100616.45
2017-05-04T07:28:13.390Z,100615.12
2017-05-04T07:30:40.837Z,100623.56
2017-05-04T07:33:08.275Z,100615.71
2017-05-04T07:35:35.742Z,100623.28
2017-05-04T07:38:03.199Z,100622.20
2017-05-04T07:40:30.660Z,100618.36
2017-05-04T07:42:58.142Z,100627.30
2017-05-04T07:45:25.577Z,100621.66
2017-05-04T07:47:53.037Z,100616.84
2017-05-04T07:50:20.499Z,100621.80
2017-05-04T07:52:47.965Z,100614.66
2017-05-04T07:55:15.405Z,100619.36
2017-05-04T07:57:42.864Z,100617.09
2017-05-04T08:00:10.335Z,100619.13
2017-05-04T08:02:37.783Z,100614.70
2017-05-04T08:05:05.259Z,100609.80
2017-05-04T08:07:32.706Z,100614.24
2017-05-04T08:10:00.146Z,100617.83
2017-05-04T08:12:28.601Z,100612.88
2017-05-04T08:14:56.257Z,100607.88
2017-05-04T08:17:23.700Z,100611.69
2017-05-04T08:19:51.166Z,100611.55
2017-05-04T08:22:18.609Z,100615.50
2017-05-04T08:24:46.047Z,100610.80
2017-05-04T08:27:13.523Z,100617.00
2017-05-04T08:29:40.962Z,100619.16
2017-05-04T08:32:08.393Z,100621.07
2017-05-04T08:34:35.856Z,100621.33
2017-05-04T08:37:03.297Z,100621.48
2017-05-04T08:39:30.738Z,100628.95
2017-05-04T08:41:58.193Z,100625.27
2017-05-04T08:44:25.630Z,100621.50
2017-05-04T08:46:53.057Z,100626.52
2017-05-04T08:49:20.528Z,100624.83
2017-05-04T08:51:47.962Z,100631.50
2017-05-04T08:54:15.397Z,100629.05
2017-05-04T08:56:42.858Z,100625.22
2017-05-04T08:59:10.293Z,100626.91
2017-05-04T09:01:37.734Z,100622.09
2017-05-04T09:04:05.189Z,100627.27
2017-05-04T09:06:32.624Z,100625.00
2017-05-04T09:09:00.062Z,100623.70
2017-05-04T09:11:27.532Z,100628.03
2017-05-04T09:13:54.969Z,100634.39
2017-05-04T09:16:22.401Z,100629.11
2017-05-04T09:18:49.861Z,100632.52
2017-05-04T09:21:17.294Z,100638.14
2017-05-04T09:23:44.746Z,100629.03
2017-05-04T09:26:12.202Z,100631.14
2017-05-04T09:28:39.637Z,100629.34
2017-05-04T09:31:07.079Z,100627.00
2017-05-04T09:33:34.550Z,100634.85
2017-05-04T09:36:01.986Z,100632.52
2017-05-04T09:38:29.425Z,100625.20
2017-05-04T09:40:56.871Z,100627.11
2017-05-04T09:43:24.301Z,100625.84
2017-05-04T09:45:51.738Z,100619.48
2017-05-04T09:48:19.201Z,100624.05
2017-05-04T09:50:46.631Z,100620.56
2017-05-04T09:53:14.066Z,100616.73
2017-05-04T09:55:41.526Z,100614.09
2017-05-04T09:58:08.974Z,100623.31
2017-05-04T10:00:36.405Z,100616.62
2017-05-04T10:03:03.866Z,100621.59
2017-05-04T10:05:31.310Z,100617.88
2017-05-04T10:07:58.747Z,100610.03
2017-05-04T10:10:26.210Z,100615.73
2017-05-04T10:12:53.642Z,100608.61
2017-05-04T10:15:21.080Z,100617.36
2017-05-04T10:17:48.525Z,100614.37
2017-05-04T10:20:15.958Z,100617.44
2017-05-04T10:22:43.393Z,100611.38
2017-05-04T10:25:10.857Z,100617.86
2017-05-04T10:27:38.305Z,100604.83
2017-05-04T10:30:06.495Z,100608.35
2017-05-04T10:32:33.966Z,100606.70
2017-05-04T10:35:01.406Z,100608.84
2017-05-04T10:37:28.838Z,100602.79
2017-05-04T10:39:56.287Z,100600.15
2017-05-04T10:42:23.725Z,100609.38
2017-05-04T10:44:51.162Z,100600.91
2017-05-04T10:47:18.630Z,100598.27
2017-05-04T10:49:46.073Z,100597.23
2017-05-04T10:52:13.533Z,100606.53
2017-05-04T10:54:40.978Z,100611.55
2017-05-04T10:57:08.467Z,100604.48
2017-05-04T10:59:35.922Z,100605.48
2017-05-04T11:02:03.406Z,100597.70
2017-05-04T11:04:30.846Z,100599.95
2017-05-04T11:06:58.303Z,100598.80
2017-05-04T11:09:25.759Z,100598.72
2017-05-04T11:11:53.218Z,100596.50
2017-05-04T11:14:20.658Z,100596.61
2017-05-04T11:16:48.158Z,100591.09
2017-05-04T11:19:15.606Z,100587.92
2017-05-04T11:21:43.062Z,100589.14
2017-05-04T11:24:10.606Z,100588.94
2017-05-04T11:26:38.062Z,100584.61
2017-05-04T11:29:05.538Z,100589.51
2017-05-04T11:31:33.023Z,100592.91
2017-05-04T11:34:00.466Z,100581.89
2017-05-04T11:36:27.915Z,100578.29
2017-05-04T11:38:55.382Z,100581.05
2017-05-04T11:41:22.828Z,100586.86
2017-05-04T11:43:50.289Z,100578.48
2017-05-04T11:46:17.767Z,100582.50
2017-05-04T11:48:45.238Z,100590.66
2017-05-04T11:51:12.696Z,100590.02
2017-05-04T11:53:41.095Z,100591.70
2017-05-04T11:56:09.473Z,100591.70
2017-05-04T11:58:36.945Z,100588.21
2017-05-04T12:01:04.405Z,100584.19
2017-05-04T12:03:31.859Z,100582.89
2017-05-04T12:05:59.303Z,100581.22
2017-05-04T12:08:26.763Z,100586.51
2017-05-04T12:11:07.294Z,100581.72
2017-05-04T12:13:34.774Z,100586.93
2017-05-04T12:16:02.234Z,100590.14
2017-05-04T12:18:29.721Z,100587.14
2017-05-04T12:20:57.262Z,100582.08
2017-05-04T12:23:24.760Z,100585.60
2017-05-04T12:25:52.271Z,100586.20
2017-05-04T12:28:19.842Z,100591.62
2017-05-04T12:30:47.366Z,100596.10
2017-05-04T12:33:14.846Z,100587.75
2017-05-04T12:35:42.329Z,100590.42
2017-05-04T12:38:09.842Z,100587.62
2017-05-04T12:40:37.345Z,100583.28
2017-05-04T12:43:04.870Z,100587.11
2017-05-04T12:45:32.413Z,100584.70
2017-05-04T12:47:59.935Z,100580.84
2017-05-04T12:50:27.493Z,100593.16
2017-05-04T12:52:54.980Z,100605.36
2017-05-04T12:55:22.494Z,100609.41
2017-05-04T12:57:50.032Z,100607.10
2017-05-04T13:00:17.557Z,100613.28
2017-05-04T13:02:45.131Z,100610.27
2017-05-04T13:05:12.638Z,100611.41
2017-05-04T13:07:40.131Z,100609.58
2017-05-04T13:10:07.624Z,100611.52
2017-05-04T13:12:35.144Z,100608.55
2017-05-04T13:15:02.609Z,100611.00
2017-05-04T13:17:30.106Z,100613.55
2017-05-04T13:19:58.562Z,100616.95
2017-05-04T13:22:26.018Z,100618.86
2017-05-04T13:24:53.474Z,100615.30
2017-05-04T13:27:21.006Z,100609.78
2017-05-04T13:29:48.523Z,100606.61
2017-05-04T13:32:16.075Z,100610.80
2017-05-04T13:34:43.538Z,100605.19
2017-05-04T13:37:10.990Z,100610.60
2017-05-04T13:39:38.422Z,100597.64
2017-05-04T13:42:11.769Z,100598.14
2017-05-04T13:44:39.234Z,100597.77
2017-05-04T13:47:06.814Z,100581.88
2017-05-04T13:49:34.348Z,100575.61
2017-05-04T13:52:01.890Z,100578.96
2017-05-04T13:54:29.363Z,100573.96
2017-05-04T13:56:56.854Z,100580.33
2017-05-04T13:59:28.311Z,100572.63
2017-05-04T14:01:55.858Z,100565.38
2017-05-04T14:04:23.345Z,100570.25
2017-05-04T14:09:48.146Z,100568.98
2017-05-04T14:12:15.677Z,100574.80
2017-05-04T14:14:43.117Z,100565.27
2017-05-04T14:17:10.630Z,100559.61
2017-05-04T14:19:38.186Z,100545.84
2017-05-04T14:22:05.679Z,100539.27
2017-05-04T14:24:33.186Z,100534.34
2017-05-04T14:27:00.665Z,100534.95
2017-05-04T14:29:28.151Z,100543.03
2017-05-04T14:31:55.725Z,100538.03
2017-05-04T14:34:23.230Z,100541.45
2017-05-04T14:36:50.682Z,100542.36
2017-05-04T14:39:18.172Z,100535.48
2017-05-04T14:41:45.699Z,100535.81
2017-05-04T14:44:13.147Z,100532.11
2017-05-04T14:46:40.622Z,100532.42
2017-05-04T14:49:08.070Z,100536.69
2017-05-04T14:51:35.550Z,100532.86
2017-05-04T14:54:03.025Z,100527.16
2017-05-04T14:56:30.476Z,100528.17
2017-05-04T14:58:57.922Z,100530.34
2017-05-04T15:01:25.393Z,100531.41
2017-05-04T15:03:52.850Z,100523.61
2017-05-04T15:06:20.305Z,100527.09
2017-05-04T15:08:47.790Z,100520.16
2017-05-04T15:11:26.790Z,100531.42
2017-05-04T15:13:54.266Z,100521.12
2017-05-04T15:16:21.734Z,100519.73
2017-05-04T15:18:49.186Z,100534.48
2017-05-04T15:21:16.626Z,100534.60
2017-05-04T15:23:49.630Z,100536.21
2017-05-04T15:26:17.070Z,100532.45
2017-05-04T15:28:44.520Z,100533.41
2017-05-04T15:31:11.974Z,100542.76
2017-05-04T15:33:39.425Z,100538.63
2017-05-04T15:36:23.910Z,100544.56
2017-05-04T15:38:51.479Z,100541.69
2017-05-04T15:41:18.926Z,100535.63
2017-05-04T15:43:46.379Z,100537.97
2017-05-04T15:46:13.832Z,100538.39
2017-05-04T15:48:41.322Z,100542.53
2017-05-04T15:51:08.983Z,100541.45
2017-05-04T15:53:36.418Z,100543.72
2017-05-04T15:56:17.626Z,100547.70
2017-05-04T15:58:45.071Z,100544.91
2017-05-04T16:01:14.466Z,100540.80
2017-05-04T16:03:41.931Z,100537.89
2017-05-04T16:06:09.391Z,100535.97
2017-05-04T16:08:36.826Z,100540.41
2017-05-04T16:11:04.271Z,100544.75
2017-05-04T16:13:31.734Z,100541.38
2017-05-04T16:15:59.184Z,100544.09
2017-05-04T16:18:26.852Z,100551.37
2017-05-04T16:20:54.294Z,100548.07
2017-05-04T16:23:21.753Z,100545.42
2017-05-04T16:25:49.249Z,100553.09
2017-05-04T16:28:16.696Z,100545.81
2017-05-04T16:30:45.747Z,100549.08
2017-05-04T16:33:13.193Z,100556.13
2017-05-04T16:35:41.059Z,100564.45
2017-05-04T16:38:08.536Z,100561.88
2017-05-04T16:40:35.986Z,100574.02
2017-05-04T16:43:03.450Z,100576.94
2017-05-04T16:45:31.347Z,100572.14
2017-05-04T16:47:58.804Z,100584.48
2017-05-04T16:50:28.263Z,100576.35
2017-05-04T16:52:55.723Z,100586.08
2017-05-04T16:55:23.174Z,100584.73
2017-05-04T16:57:50.619Z,100592.31
2017-05-04T17:00:18.217Z,100594.94
2017-05-04T17:02:45.752Z,100586.16
2017-05-04T17:05:13.200Z,100593.09
2017-05-04T17:07:40.654Z,100594.16
2017-05-04T17:10:09.065Z,100600.89
2017-05-04T17:12:36.595Z,100608.66
2017-05-04T17:15:04.066Z,100613.87
2017-05-04T17:17:31.514Z,100609.65
2017-05-04T17:19:58.966Z,100616.87
2017-05-04T17:22:26.435Z,100617.95
2017-05-04T17:24:54.903Z,100625.91
2017-05-04T17:27:22.421Z,100619.81
2017-05-04T17:29:49.894Z,100616.63
2017-05-04T17:32:17.360Z,100624.17
2017-05-04T17:34:44.817Z,100630.44
2017-05-04T17:37:12.278Z,100628.33
2017-05-04T17:39:39.738Z,100629.85
2017-05-04T17:42:07.200Z,100640.40
2017-05-04T17:44:36.398Z,100640.31
2017-05-04T17:47:03.857Z,100642.14
2017-05-04T17:49:32.220Z,100649.05
2017-05-04T17:51:59.679Z,100650.48
2017-05-04T17:54:28.055Z,100646.91
2017-05-04T17:56:55.511Z,100652.02
2017-05-04T17:59:22.965Z,100652.16
2017-05-04T18:01:51.365Z,100651.14
2017-05-04T18:04:18.831Z,100651.30
2017-05-04T18:06:46.265Z,100661.92
2017-05-04T18:09:14.660Z,100661.63
2017-05-04T18:11:42.100Z,100665.50
2017-05-04T18:14:09.551Z,100662.34
2017-05-04T18:16:36.997Z,100675.28
2017-05-04T18:19:04.436Z,100665.28
2017-05-04T18:21:31.918Z,100661.91
2017-05-04T18:23:59.353Z,100666.81
2017-05-04T18:26:26.784Z,100668.77
2017-05-04T18:28:54.241Z,100676.63
2017-05-04T18:31:21.682Z,100672.62
2017-05-04T18:33:49.123Z,100670.02
2017-05-04T18:36:17.295Z,100681.57
2017-05-04T18:38:44.742Z,100671.95
2017-05-04T18:41:12.181Z,100683.01
2017-05-04T18:43:39.641Z,100687.14
2017-05-04T18:46:07.074Z,100684.83
2017-05-04T18:48:34.506Z,100687.20
2017-05-04T18:51:01.963Z,100695.36
2017-05-04T18:53:29.398Z,100691.66
2017-05-04T18:55:56.837Z,100696.53
2017-05-04T18:58:24.293Z,100703.20
2017-05-04T19:00:51.766Z,100700.39
2017-05-04T19:03:19.225Z,100712.13
2017-05-04T19:05:46.703Z,100704.73
2017-05-04T19:08:14.134Z,100710.24
2017-05-04T19:10:41.573Z,100713.88
2017-05-04T19:13:09.042Z,100716.00
2017-05-04T19:15:36.474Z,100725.20
2017-05-04T19:18:03.917Z,100722.77
2017-05-04T19:20:31.382Z,100724.47
2017-05-04T19:22:58.817Z,100730.70
2017-05-04T19:25:26.253Z,100729.13
2017-05-04T19:27:53.702Z,100726.41
2017-05-04T19:30:21.140Z,100726.52
2017-05-04T19:32:48.583Z,100732.76
2017-05-04T19:35:16.042Z,100739.31
2017-05-04T19:37:43.474Z,100746.30
2017-05-04T19:40:10.919Z,100743.76
2017-05-04T19:42:38.376Z,100746.61
2017-05-04T19:45:05.813Z,100749.47
2017-05-04T19:47:33.251Z,100750.53
2017-05-04T19:50:00.713Z,100754.66
2017-05-04T19:52:28.146Z,100753.28
2017-05-04T19:54:55.585Z,100755.50
2017-05-04T19:57:23.053Z,100750.11
2017-05-04T19:59:50.490Z,100744.32
2017-05-04T20:02:17.958Z,100743.05
2017-05-04T20:04:45.421Z,100744.95
2017-05-04T20:07:12.864Z,100744.22
2017-05-04T20:09:40.305Z,100751.19
2017-05-04T20:12:07.760Z,100757.33
2017-05-04T20:14:35.189Z,100750.98
2017-05-04T20:17:02.622Z,100756.59
2017-05-04T20:19:30.077Z,100766.00
2017-05-04T20:21:57.518Z,100775.62
2017-05-04T20:24:24.969Z,100766.52
2017-05-04T20:26:52.429Z,100763.98
2017-05-04T20:29:19.869Z,100763.70
2017-05-04T20:31:47.308Z,100764.41
2017-05-04T20:34:14.761Z,100771.06
2017-05-04T20:36:42.208Z,100771.38
2017-05-04T20:39:09.648Z,100777.41
2017-05-04T20:41:37.106Z,100780.79
2017-05-04T20:44:06.008Z,100791.36
2017-05-04T20:46:33.476Z,100783.85
2017-05-04T20:49:00.934Z,100786.84
2017-05-04T20:51:28.378Z,100789.37
2017-05-04T20:53:55.802Z,100790.53
2017-05-04T20:56:23.288Z,100790.75
2017-05-04T20:58:50.726Z,100796.45
2017-05-04T21:01:19.167Z,100800.25
2017-05-04T21:03:46.621Z,100799.52
2017-05-04T21:06:14.066Z,100802.79
2017-05-04T21:08:41.505Z,100805.74
2017-05-04T21:11:08.958Z,100800.36
2017-05-04T21:13:38.269Z,100810.20
2017-05-04T21:16:05.711Z,100805.84
2017-05-04T21:18:33.169Z,100811.13
2017-05-04T21:21:00.612Z,100811.91
2017-05-04T21:23:28.058Z,100804.48
2017-05-04T21:25:55.494Z,100813.37
2017-05-04T21:28:22.949Z,100818.02
2017-05-04T21:30:50.378Z,100819.19
2017-05-04T21:33:17.826Z,100814.53
2017-05-04T21:35:45.305Z,100817.36
2017-05-04T21:38:12.761Z,100819.40
2017-05-04T21:40:40.218Z,100817.89
2017-05-04T21:43:07.678Z,100822.02
2017-05-04T21:45:35.136Z,100829.55
2017-05-04T21:48:02.612Z,100830.08
2017-05-04T21:50:30.061Z,100825.53
2017-05-04T21:52:57.501Z,100826.80
2017-05-04T21:55:24.939Z,100829.33
2017-05-04T21:57:52.398Z,100829.54
2017-05-04T22:00:19.837Z,100823.09
2017-05-04T22:02:47.282Z,100827.84
2017-05-04T22:05:14.731Z,100824.88
2017-05-04T22:07:42.170Z,100837.36
2017-05-04T22:10:09.599Z,100825.30
2017-05-04T22:12:37.057Z,100823.30
2017-05-04T22:15:04.708Z,100832.91
2017-05-04T22:17:32.137Z,100836.72
2017-05-04T22:19:59.589Z,100828.68
2017-05-04T22:22:27.026Z,100834.70
2017-05-04T22:24:54.462Z,100832.59
2017-05-04T22:27:21.918Z,100846.54
2017-05-04T22:29:49.346Z,100849.39
2017-05-04T22:32:16.778Z,100849.31
2017-05-04T22:34:44.229Z,100854.39
2017-05-04T22:37:11.685Z,100854.39
2017-05-04T22:39:39.124Z,100849.95
2017-05-04T22:42:06.579Z,100851.95
2017-05-04T22:44:34.014Z,100852.69
2017-05-04T22:47:01.441Z,100849.19
2017-05-04T22:49:28.901Z,100857.97
2017-05-04T22:51:56.335Z,100856.80
2017-05-04T22:54:23.762Z,100855.20
2017-05-04T22:56:51.249Z,100862.92
2017-05-04T22:59:18.689Z,100859.67
2017-05-04T23:01:46.177Z,100858.92
2017-05-04T23:04:13.633Z,100866.63
2017-05-04T23:06:41.074Z,100861.14
2017-05-04T23:09:08.506Z,100862.09
2017-05-04T23:11:35.973Z,100869.37
2017-05-04T23:14:03.420Z,100863.45
2017-05-04T23:16:30.865Z,100867.91
2017-05-04T23:18:58.316Z,100871.81
2017-05-04T23:21:25.752Z,100870.55
2017-05-04T23:23:53.183Z,100876.47
2017-05-04T23:26:20.645Z,100872.02
2017-05-04T23:28:58.431Z,100867.79
2017-05-04T23:31:25.902Z,100871.69
2017-05-04T23:33:53.333Z,100871.89
2017-05-04T23:36:20.769Z,100875.09
2017-05-04T23:38:48.239Z,100878.14
2017-05-04T23:41:15.669Z,100872.95
2017-05-04T23:43:43.154Z,100873.48
2017-05-04T23:46:10.606Z,100877.91
2017-05-04T23:48:38.041Z,100875.57
2017-05-04T23:51:05.480Z,100869.66
2017-05-04T23:53:32.944Z,100874.33
2017-05-04T23:56:00.392Z,100880.64
2017-05-04T23:58:27.826Z,100882.33
